KMDH/MDH METAR and TAF weather

Enter ICAO airport designator
Station Type Date Time Source
KMDH METAR 2020/09/30 13:52 UTC NOAA

KMDH 301352Z 22011KT 10SM CLR 17/07 A2986 RMK AO2 SLP112 T01670072


Station Type Date Time Source
KMDH Decoded METAR 2020/09/30 13:52 UTC NOAA

SOUTHERN ILLINOIS AIRPORT, IL, United States (KMDH) 37-47N 089-15W 130M
Sep 30, 2020 - 09:52 AM EDT / 2020.09.30 1352 UTC
Wind: from the SW (220 degrees) at 13 MPH (11 KT):0
Visibility: 10 mile(s):0
Sky conditions: clear
Temperature: 62.1 F (16.7 C)
Dew Point: 45.0 F (7.2 C)
Relative Humidity: 53%
Pressure (altimeter): 29.86 in. Hg (1011 hPa)
ob: KMDH 301352Z 22011KT 10SM CLR 17/07 A2986 RMK AO2 SLP112 T01670072
cycle: 14

Station Type Date Time Source
KMDH TAF UTC NOAA

Error!

Example: see airport list